Latest Coastal Weather Observations for Cape Flattery

IDQ60701

Issued at 12:35 pm EST Saturday 2 August 2014 (issued every 10 minutes, with the page automatically refreshed every 10 minutes)

About coastal observations | Map of coastal stations | Coastal observations for QLD | Marine services | Other Formats
Station Details ID: 031213 Name: CAPE FLATTERY Lat: -14.97 Lon: 145.31 Height: 18.5 m
Data from the previous 72 hours. | See also: Recent months at Cape Flattery
Date/Time
EST
Temp

°C
Wind Pressure Rain
since 9am
mm
Weather Cloud Vis
km
Sea
Height
m
Swell
Dir
 
Speed
knots
Gust
knots
hPa Trend Height
m
Period
s
Dir
02/12:30pm 25.4 S 15 19 1017.1 - 0.0 - - - - - - -
02/12:00pm 25.8 SSE 14 19 1017.4 - 0.0 - - - - - - -
02/11:30am 26.6 SE 14 18 1017.9 - 0.0 - - - - - - -
02/11:00am 25.8 SSE 14 17 1018.2 - 0.0 - - - - - - -
02/10:30am 26.1 SE 12 17 1018.3 - 0.0 - - - - - - -
02/10:00am 25.7 SE 11 15 1018.4 - 0.0 - - - - - - -
02/09:30am 25.4 SSE 13 16 1018.4 - 0.0 - - - - - - -
02/09:00am 24.8 SSE 12 17 1018.1 - 0.0 - - - - - - -
02/08:30am 24.5 SSE 12 15 1017.8 - 0.0 - - - - - - -
02/08:00am 23.6 SSE 11 14 1017.7 - 0.0 - - - - - - -
02/07:30am 23.0 SSE 11 13 1017.3 - 0.0 - - - - - - -
02/07:00am 22.5 SSE 8 11 1017.0 - 0.0 - - - - - - -
02/06:30am 22.3 SSE 9 12 1016.8 - 0.0 - - - - - - -
02/06:00am 22.3 SSE 8 11 1016.4 - 0.0 - - - - - - -
02/05:30am 22.2 SSE 8 11 1016.3 - 0.0 - - - - - - -
02/05:00am 22.1 SSE 7 9 1016.3 - 0.0 - - - - - - -
02/04:30am 22.3 SSE 8 9 1016.1 - 0.0 - - - - - - -
02/04:00am 22.2 SE 6 8 1016.0 - 0.0 - - - - - - -
02/03:30am 22.4 SE 8 11 1016.0 - 0.0 - - - - - - -
02/03:00am 22.5 SE 9 11 1016.0 - 0.0 - - - - - - -
02/02:30am 22.1 SE 8 9 1016.4 - 0.0 - - - - - - -
02/02:00am 22.4 SE 8 11 1016.7 - 0.0 - - - - - - -
02/01:30am 22.5 SE 7 9 1016.7 - 0.0 - - - - - - -
02/01:00am 22.5 SE 7 9 1016.9 - 0.0 - - - - - - -
02/12:30am 22.4 SE 9 11 1016.9 - 0.0 - - - - - - -
02/12:00am 22.3 SE 7 9 1017.0 - 0.0 - - - - - - -
 
Date/Time
EST
Temp

°C
Wind Pressure Rain
since 9am
mm
Weather Cloud Vis
km
Sea
Height
m
Swell
Dir
 
Speed
knots
Gust
knots
hPa Trend Height
m
Period
s
Dir
01/11:30pm 22.5 SE 7 9 1017.3 - 0.0 - - - - - - -
01/11:00pm 22.8 SE 8 11 1017.5 - 0.0 - - - - - - -
01/10:30pm 22.7 SE 7 10 1017.6 - 0.0 - - - - - - -
01/10:00pm 22.4 SE 7 9 1017.7 - 0.0 - - - - - - -
01/09:30pm 22.4 SE 8 11 1017.6 - 0.0 - - - - - - -
01/09:00pm 22.6 SE 9 12 1017.4 - 0.0 - - - - - - -
01/08:30pm 22.6 SE 9 11 1017.1 - 0.0 - - - - - - -
01/08:00pm 22.6 SE 8 11 1016.9 - 0.0 - - - - - - -
01/07:30pm 22.7 ESE 7 9 1016.6 - 0.0 - - - - - - -
01/07:00pm 22.7 SE 7 9 1016.2 - 0.0 - - - - - - -
01/06:30pm 22.7 SE 7 9 1015.9 - 0.0 - - - - - - -
01/06:00pm 23.4 SE 8 12 1015.6 - 0.0 - - - - - - -
01/05:30pm 24.0 SE 9 13 1015.5 - 0.0 - - - - - - -
01/05:00pm 24.4 SE 11 14 1015.4 - 0.0 - - - - - - -
01/04:30pm 25.0 SSE 12 16 1015.2 - 0.0 - - - - - - -
01/04:00pm 25.1 SSE 15 18 1015.1 - 0.0 - - - - - - -
01/03:30pm 25.5 SSE 16 21 1015.1 - 0.0 - - - - - - -
01/03:00pm 25.6 SSE 16 20 1015.2 - 0.0 - - - - - - -
01/02:30pm 25.7 SSE 16 20 1015.3 - 0.0 - - - - - - -
01/02:00pm 26.2 SSE 15 19 1015.6 - 0.0 - - - - - - -
01/01:30pm 26.1 SSE 14 19 1016.0 - 0.0 - - - - - - -
01/01:00pm 25.9 SSE 15 19 1016.5 - 0.0 - - - - - - -
01/12:30pm 25.8 SSE 14 19 1016.9 - 0.0 - - - - - - -
01/12:00pm 26.1 SSE 14 19 1017.0 - 0.0 - - - - - - -
01/11:30am 25.9 SSE 14 18 1017.3 - 0.0 - - - - - - -
01/11:00am 25.8 SSE 13 17 1017.5 - 0.0 - - - - - - -
01/10:30am 25.9 SE 13 16 1017.6 - 0.0 - - - - - - -
01/10:00am 24.7 SE 13 17 1017.8 - 0.0 - - - - - - -
01/09:30am 25.4 SE 12 15 1017.9 - 0.0 - - - - - - -
01/09:00am 25.1 SE 11 13 1017.5 - 0.0 - - - - - - -
01/08:30am 24.4 SE 8 13 1017.4 - 0.0 - - - - - - -
01/08:00am 24.1 SE 9 13 1017.2 - 0.0 - - - - - - -
01/07:30am 23.1 SE 8 11 1016.8 - 0.0 - - - - - - -
01/07:00am 22.2 ESE 7 9 1016.5 - 0.0 - - - - - - -
01/06:30am 22.0 SE 8 10 1016.1 - 0.0 - - - - - - -
01/06:00am 21.4 SE 7 8 1015.8 - 0.0 - - - - - - -
01/05:30am 21.7 SE 8 9 1015.6 - 0.0 - - - - - - -
01/05:00am 21.3 ESE 8 9 1015.4 - 0.0 - - - - - - -
01/04:30am 21.7 SE 7 9 1015.4 - 0.0 - - - - - - -
01/04:00am 22.0 SE 8 11 1015.6 - 0.0 - - - - - - -
01/03:30am 21.6 SE 8 9 1015.6 - 0.0 - - - - - - -
01/03:00am 21.7 ESE 8 9 1015.8 - 0.0 - - - - - - -
01/02:30am 21.8 ESE 8 10 1016.2 - 0.0 - - - - - - -
01/02:00am 22.0 ESE 7 9 1016.5 - 0.0 - - - - - - -
01/01:30am 22.5 SE 9 11 1016.7 - 0.0 - - - - - - -
01/01:00am 22.7 SE 8 11 1017.0 - 0.0 - - - - - - -
01/12:30am 22.6 SE 9 11 1017.1 - 0.0 - - - - - - -
01/12:00am 22.5 SE 8 11 1017.2 - 0.0 - - - - - - -
 
Date/Time
EST
Temp

°C
Wind Pressure Rain
since 9am
mm
Weather Cloud Vis
km
Sea
Height
m
Swell
Dir
 
Speed
knots
Gust
knots
hPa Trend Height
m
Period
s
Dir
31/11:30pm 22.5 SE 8 11 1017.3 - 0.0 - - - - - - -
31/11:00pm 22.6 SE 8 11 1017.3 - 0.0 - - - - - - -
31/10:30pm 22.7 SE 8 11 1017.5 - 0.0 - - - - - - -
31/10:00pm 22.2 ESE 7 9 1017.6 - 0.0 - - - - - - -
31/09:30pm 22.5 SE 7 9 1017.4 - 0.0 - - - - - - -
31/09:00pm 22.6 SE 9 11 1017.0 - 0.0 - - - - - - -
31/08:30pm 22.6 SE 9 12 1016.9 - 0.0 - - - - - - -
31/08:00pm 22.6 SSE 8 13 1016.4 - 0.0 - - - - - - -
31/07:30pm 22.7 SE 8 10 1016.1 - 0.0 - - - - - - -
31/07:00pm 22.7 SE 8 11 1015.7 - 0.0 - - - - - - -
31/06:30pm 23.0 SE 11 14 1015.6 - 0.0 - - - - - - -
31/06:00pm 23.7 SSE 12 15 1015.4 - 0.0 - - - - - - -
31/05:30pm 24.8 SSE 11 14 1015.5 - 0.0 - - - - - - -
31/05:00pm 25.0 SE 10 13 1015.5 - 0.0 - - - - - - -
31/04:30pm 25.2 SSE 11 15 1015.5 - 0.0 - - - - - - -
31/04:00pm 25.8 SSE 13 16 1015.5 - 0.0 - - - - - - -
31/03:30pm 25.8 SE 11 14 1015.4 - 0.0 - - - - - - -
31/03:00pm 25.9 SE 13 16 1015.4 - 0.0 - - - - - - -
31/02:30pm 25.6 SE 12 16 1015.7 - 0.0 - - - - - - -
31/02:00pm 26.0 SE 11 16 1015.7 - 0.0 - - - - - - -
31/01:30pm 26.0 SE 14 17 1016.0 - 0.0 - - - - - - -
31/01:00pm 26.7 SE 11 15 1016.4 - 0.0 - - - - - - -
31/12:30pm 26.3 SE 12 17 1016.8 - 0.0 - - - - - - -
31/12:00pm 26.0 SE 14 17 1017.0 - 0.0 - - - - - - -
31/11:30am 26.1 SE 12 17 1017.4 - 0.0 - - - - - - -
31/11:00am 25.8 SE 15 18 1017.7 - 0.0 - - - - - - -
31/10:30am 25.9 SE 13 17 1018.0 - 0.0 - - - - - - -
31/10:00am 25.1 SE 14 18 1018.0 - 0.0 - - - - - - -
31/09:30am 24.8 SE 11 16 1017.9 - 0.0 - - - - - - -
31/09:00am 24.3 SE 11 15 1017.6 - 0.8 - - - - - - -
31/08:30am 23.5 SE 12 16 1017.7 - 0.8 - - - - - - -
31/08:00am 23.2 SE 9 13 1017.4 - 0.8 - - - - - - -
31/07:30am 22.3 SE 10 13 1017.4 - 0.6 - - - - - - -
31/07:00am 22.8 SE 9 13 1017.2 - 0.0 - - - - - - -
31/06:30am 22.5 SE 13 20 1017.0 - 0.0 - - - - - - -
31/06:00am 22.9 SE 8 11 1016.6 - 0.0 - - - - - - -
31/05:30am 22.9 SE 10 14 1016.6 - 0.0 - - - - - - -
31/05:00am 22.9 SE 8 11 1016.6 - 0.0 - - - - - - -
31/04:30am 22.6 SE 6 8 1016.7 - 0.0 - - - - - - -
31/04:00am 22.6 SE 10 13 1016.7 - 0.0 - - - - - - -
31/03:30am 22.7 SE 8 11 1016.8 - 0.0 - - - - - - -
31/03:00am 23.1 SE 11 14 1016.7 - 0.0 - - - - - - -
31/02:30am 23.1 SE 11 15 1016.9 - 0.0 - - - - - - -
31/02:00am 22.9 SE 11 15 1017.0 - 0.0 - - - - - - -
31/01:30am 22.7 SE 10 14 1017.3 - 0.0 - - - - - - -
31/01:00am 23.0 SE 11 17 1017.4 - 0.0 - - - - - - -
31/12:30am 23.1 SE 10 14 1017.5 - 0.0 - - - - - - -
31/12:00am 23.1 SE 12 16 1017.6 - 0.0 - - - - - - -
 
Date/Time
EST
Temp

°C
Wind Pressure Rain
since 9am
mm
Weather Cloud Vis
km
Sea
Height
m
Swell
Dir
 
Speed
knots
Gust
knots
hPa Trend Height
m
Period
s
Dir
30/11:30pm 23.1 SE 12 17 1017.8 - 0.0 - - - - - - -
30/11:00pm 22.9 SE 13 17 1017.9 - 0.0 - - - - - - -
30/10:30pm 22.7 ESE 11 14 1018.0 - 0.0 - - - - - - -
30/10:00pm 23.0 SE 11 15 1017.9 - 0.0 - - - - - - -
30/09:30pm 22.8 SE 11 14 1017.9 - 0.0 - - - - - - -
30/09:00pm 22.8 SE 11 15 1017.5 - 0.0 - - - - - - -
30/08:30pm 22.7 SE 11 14 1017.4 - 0.0 - - - - - - -
30/08:00pm 22.7 SE 11 15 1017.3 - 0.0 - - - - - - -
30/07:30pm 22.8 SE 11 14 1017.0 - 0.0 - - - - - - -
30/07:00pm 22.8 SE 12 18 1016.8 - 0.0 - - - - - - -
30/06:30pm 22.9 SE 12 16 1016.7 - 0.0 - - - - - - -
30/06:00pm 23.3 SE 12 16 1016.3 - 0.0 - - - - - - -
30/05:30pm 23.6 SE 14 19 1016.4 - 0.0 - - - - - - -
30/05:00pm 24.1 SE 15 19 1016.2 - 0.0 - - - - - - -
30/04:30pm 24.0 SE 14 19 1016.1 - 0.0 - - - - - - -
30/04:00pm 25.8 SE 14 19 1016.0 - 0.0 - - - - - - -
30/03:30pm 26.2 SE 14 20 1016.1 - 0.0 - - - - - - -
30/03:00pm 25.8 SE 16 20 1016.0 - 0.0 - - - - - - -
30/02:30pm 26.4 SE 16 19 1016.4 - 0.0 - - - - - - -
30/02:00pm 25.8 SE 13 17 1016.8 - 0.0 - - - - - - -
30/01:30pm 26.7 SE 15 19 1017.2 - 0.0 - - - - - - -
30/01:00pm 27.1 SE 14 19 1017.4 - 0.0 - - - - - - -

Other Formats:

Comma delimited format used in spreadsheet applications
http://www.bom.gov.au/fwo/IDQ60701/IDQ60701.94188.axf

JavaScript Object Notation format (JSON) in row-major order
http://www.bom.gov.au/fwo/IDQ60701/IDQ60701.94188.json